Trabzon — 9HA2783 — position and weather

sailwx.info

Track history (hours):
 
Tides and Currents Weather Stations Pressure Air Temp Water Temp Dewpoint Dewpoint Depression Visibility Wind Speed Wind Dir Waves Ship Positions

Trabzon

Last reported at 2017-Dec-10 10:30 UTC. Time now 2017-Dec-14 00:44 UTC.
Position N 38°15' W 009°58'.

Length 229 m; draft 14.3 m.

Type: Cargo ship. MMSI: 215679000.

Date/timePositionNaut miles runAvg speedWind from/ knotsBaromVisibWave heightAir tempDewpointWater temp
2017-Dec-10 10:30N 38°15' W 009°58'613.1
2017-Dec-10 10:00N 38°21' W 010°00'713.0
2017-Dec-10 09:30N 38°28' W 010°02'613.0
2017-Dec-10 09:00N 38°34' W 010°04'713.0
2017-Dec-10 08:30N 38°41' W 010°06'612.6
2017-Dec-10 08:01N 38°47' W 010°06'713.0
2017-Dec-10 07:30N 38°53' W 010°06'613.0
2017-Dec-10 07:01N 38°60' W 010°06'713.1
2017-Dec-10 06:30N 39°06' W 010°06'612.8
2017-Dec-10 06:00N 39°13' W 010°06'  
2017-Dec-07 14:33N 49°47' W 003°28'0 9.0
2017-Dec-07 14:30N 49°48' W 003°27'4 8.9
2017-Dec-07 14:01N 49°50' W 003°22'4 8.5
2017-Dec-07 13:30N 49°52' W 003°16'4 7.7
2017-Dec-07 13:01N 49°54' W 003°11'4 7.2
2017-Dec-07 12:30N 49°55' W 003°06'3 6.5
2017-Dec-07 12:01N 49°57' W 003°01'3 5.7
2017-Dec-07 11:27N 49°58' W 002°56'2 4.9
2017-Dec-07 11:01N 49°58' W 002°53'2 3.9
2017-Dec-07 10:30N 49°59' W 002°50'2 3.5
2017-Dec-07 10:01N 49°59' W 002°48'2 3.2
2017-Dec-07 09:29N 49°60' W 002°45'2 3.3
2017-Dec-07 09:01N 50°00' W 002°43'2 3.4
2017-Dec-07 08:31N 50°01' W 002°40'3 3.8
2017-Dec-07 07:49N 50°01' W 002°36'1 4.5
2017-Dec-07 07:29N 50°02' W 002°34'61 6.7
2017-Dec-06 22:20N 50°18' W 001°03'  
2017-Dec-04 00:37N 57°35' E 009°05'3 8.3
2017-Dec-04 00:15N 57°37' E 009°10'2 8.4
2017-Dec-03 23:59N 57°38' E 009°13'4 8.5
2017-Dec-03 23:30N 57°40' E 009°19'4 8.5
2017-Dec-03 23:00N 57°43' E 009°26'5 8.5
2017-Dec-03 22:29N 57°44' E 009°34'4 8.7
2017-Dec-03 22:00N 57°45' E 009°41'4 8.7
2017-Dec-03 21:30N 57°47' E 009°49'4 8.7
2017-Dec-03 21:00N 57°48' E 009°57'4 8.1
2017-Dec-03 20:31N 57°48' E 010°04'4 8.0
2017-Dec-03 20:00N 57°49' E 010°12'4 8.0
2017-Dec-03 19:31N 57°49' E 010°19'4 8.0
2017-Dec-03 19:00N 57°49' E 010°27'4 7.9
2017-Dec-03 18:30N 57°49' E 010°34'4 7.6
2017-Dec-03 18:00N 57°49' E 010°41'3 6.9
2017-Dec-03 17:30N 57°47' E 010°47'4 7.4
2017-Dec-03 17:00N 57°45' E 010°52'4 7.8
2017-Dec-03 16:31N 57°42' E 010°57'4 7.8
2017-Dec-03 16:00N 57°40' E 011°03'4 7.9
2017-Dec-03 15:30N 57°37' E 011°08'4 8.3
2017-Dec-03 15:01N 57°34' E 011°14'4 8.3
2017-Dec-03 14:30N 57°31' E 011°20'4 8.2
2017-Dec-03 14:00N 57°29' E 011°25'4 8.1
2017-Dec-03 13:30N 57°25' E 011°28'4 8.3
2017-Dec-03 13:00N 57°21' E 011°31'4 8.6
2017-Dec-03 12:30N 57°17' E 011°34'4 9.0
2017-Dec-03 12:00N 57°13' E 011°36'5 9.3
2017-Dec-03 11:30N 57°08' E 011°39'5 9.1
2017-Dec-03 11:00N 57°04' E 011°42'4 8.6
2017-Dec-03 10:30N 56°60' E 011°45'107 9.1
2017-Dec-02 22:46N 55°16' E 011°05'311.9
2017-Dec-02 22:30N 55°12' E 011°06'611.9
2017-Dec-02 22:00N 55°08' E 010°60'612.8
2017-Dec-02 21:30N 55°01' E 010°60'612.6
2017-Dec-02 21:01N 54°56' E 010°53'714.0
2017-Dec-02 20:30N 54°49' E 010°50'713.2
2017-Dec-02 20:00N 54°43' E 010°47'4 7.8
2017-Dec-02 19:30N 54°40' E 010°50'4 8.6
2017-Dec-02 19:00N 54°37' E 010°56'4 8.0
2017-Dec-02 18:30N 54°36' E 011°03'4 8.8
2017-Dec-02 18:01N 54°36' E 011°10'5 9.6
2017-Dec-02 17:30N 54°34' E 011°18'5 9.5
2017-Dec-02 17:00N 54°32' E 011°25'5 9.4
2017-Dec-02 16:30N 54°30' E 011°33'5 9.3
2017-Dec-02 16:00N 54°28' E 011°40'5 9.0
2017-Dec-02 15:30N 54°26' E 011°47'4 8.9
2017-Dec-02 15:00N 54°26' E 011°55'4 8.7
2017-Dec-02 14:30N 54°26' E 012°02'4 8.4
2017-Dec-02 14:00N 54°26' E 012°09'4 8.8
2017-Dec-02 13:30N 54°30' E 012°13'70 8.7
2017-Dec-02 05:29N 55°03' E 013°60'6 8.9
2017-Dec-02 04:49N 55°07' E 014°08'3 9.4
2017-Dec-02 04:27N 55°09' E 014°12'5 9.4
2017-Dec-02 03:57N 55°13' E 014°17'5 9.6
2017-Dec-02 03:28N 55°17' E 014°22'4 9.7
2017-Dec-02 03:00N 55°20' E 014°27'5 9.5
2017-Dec-02 02:30N 55°24' E 014°32'6 9.1
2017-Dec-02 01:52N 55°28' E 014°40'3 9.3
2017-Dec-02 01:30N 55°29' E 014°45'6 9.3
2017-Dec-02 00:54N 55°32' E 014°53'4 9.3
2017-Dec-02 00:28N 55°34' E 014°60'4 9.2
2017-Dec-01 23:59N 55°36' E 015°06'5 9.1
2017-Dec-01 23:30N 55°38' E 015°14'5 9.3
2017-Dec-01 23:00N 55°39' E 015°21'5 9.3
2017-Dec-01 22:30N 55°40' E 015°29'5 9.3
2017-Dec-01 22:00N 55°41' E 015°37'5 9.4
2017-Dec-01 21:30N 55°43' E 015°46'5 9.2
2017-Dec-01 21:00N 55°44' E 015°53'5 9.0
2017-Dec-01 20:30N 55°45' E 016°01'4 8.9
2017-Dec-01 20:00N 55°46' E 016°09'4 8.8
2017-Dec-01 19:30N 55°47' E 016°17'4 8.7
2017-Dec-01 19:00N 55°47' E 016°24'9 8.7
2017-Dec-01 17:56N 55°50' E 016°40'4 8.5
2017-Dec-01 17:29N 55°51' E 016°47'  
Track history (hours):
 
Tides and Currents Weather Stations Pressure Air Temp Water Temp Dewpoint Dewpoint Depression Visibility Wind Speed Wind Dir Waves Ship Positions

Trabzon

Last reported at 2017-Dec-10 10:30 UTC. Time now 2017-Dec-14 00:44 UTC.
Position N 38°15' W 009°58'.

Length 229 m; draft 14.3 m.

Type: Cargo ship. MMSI: 215679000.

Date/timePositionNaut miles runAvg speedWind from/ knotsBaromVisibWave heightAir tempDewpointWater temp
2017-Dec-10 10:30N 38°15' W 009°58'613.1
2017-Dec-10 10:00N 38°21' W 010°00'713.0
2017-Dec-10 09:30N 38°28' W 010°02'613.0
2017-Dec-10 09:00N 38°34' W 010°04'713.0
2017-Dec-10 08:30N 38°41' W 010°06'612.6
2017-Dec-10 08:01N 38°47' W 010°06'713.0
2017-Dec-10 07:30N 38°53' W 010°06'613.0
2017-Dec-10 07:01N 38°60' W 010°06'713.1
2017-Dec-10 06:30N 39°06' W 010°06'612.8
2017-Dec-10 06:00N 39°13' W 010°06'  
2017-Dec-07 14:33N 49°47' W 003°28'0 9.0
2017-Dec-07 14:30N 49°48' W 003°27'4 8.9
2017-Dec-07 14:01N 49°50' W 003°22'4 8.5
2017-Dec-07 13:30N 49°52' W 003°16'4 7.7
2017-Dec-07 13:01N 49°54' W 003°11'4 7.2
2017-Dec-07 12:30N 49°55' W 003°06'3 6.5
2017-Dec-07 12:01N 49°57' W 003°01'3 5.7
2017-Dec-07 11:27N 49°58' W 002°56'2 4.9
2017-Dec-07 11:01N 49°58' W 002°53'2 3.9
2017-Dec-07 10:30N 49°59' W 002°50'2 3.5
2017-Dec-07 10:01N 49°59' W 002°48'2 3.2
2017-Dec-07 09:29N 49°60' W 002°45'2 3.3
2017-Dec-07 09:01N 50°00' W 002°43'2 3.4
2017-Dec-07 08:31N 50°01' W 002°40'3 3.8
2017-Dec-07 07:49N 50°01' W 002°36'1 4.5
2017-Dec-07 07:29N 50°02' W 002°34'61 6.7
2017-Dec-06 22:20N 50°18' W 001°03'  
2017-Dec-04 00:37N 57°35' E 009°05'3 8.3
2017-Dec-04 00:15N 57°37' E 009°10'2 8.4
2017-Dec-03 23:59N 57°38' E 009°13'4 8.5
2017-Dec-03 23:30N 57°40' E 009°19'4 8.5
2017-Dec-03 23:00N 57°43' E 009°26'5 8.5
2017-Dec-03 22:29N 57°44' E 009°34'4 8.7
2017-Dec-03 22:00N 57°45' E 009°41'4 8.7
2017-Dec-03 21:30N 57°47' E 009°49'4 8.7
2017-Dec-03 21:00N 57°48' E 009°57'4 8.1
2017-Dec-03 20:31N 57°48' E 010°04'4 8.0
2017-Dec-03 20:00N 57°49' E 010°12'4 8.0
2017-Dec-03 19:31N 57°49' E 010°19'4 8.0
2017-Dec-03 19:00N 57°49' E 010°27'4 7.9
2017-Dec-03 18:30N 57°49' E 010°34'4 7.6
2017-Dec-03 18:00N 57°49' E 010°41'3 6.9
2017-Dec-03 17:30N 57°47' E 010°47'4 7.4
2017-Dec-03 17:00N 57°45' E 010°52'4 7.8
2017-Dec-03 16:31N 57°42' E 010°57'4 7.8
2017-Dec-03 16:00N 57°40' E 011°03'4 7.9
2017-Dec-03 15:30N 57°37' E 011°08'4 8.3
2017-Dec-03 15:01N 57°34' E 011°14'4 8.3
2017-Dec-03 14:30N 57°31' E 011°20'4 8.2
2017-Dec-03 14:00N 57°29' E 011°25'4 8.1
2017-Dec-03 13:30N 57°25' E 011°28'4 8.3
2017-Dec-03 13:00N 57°21' E 011°31'4 8.6
2017-Dec-03 12:30N 57°17' E 011°34'4 9.0
2017-Dec-03 12:00N 57°13' E 011°36'5 9.3
2017-Dec-03 11:30N 57°08' E 011°39'5 9.1
2017-Dec-03 11:00N 57°04' E 011°42'4 8.6
2017-Dec-03 10:30N 56°60' E 011°45'107 9.1
2017-Dec-02 22:46N 55°16' E 011°05'311.9
2017-Dec-02 22:30N 55°12' E 011°06'611.9
2017-Dec-02 22:00N 55°08' E 010°60'612.8
2017-Dec-02 21:30N 55°01' E 010°60'612.6
2017-Dec-02 21:01N 54°56' E 010°53'714.0
2017-Dec-02 20:30N 54°49' E 010°50'713.2
2017-Dec-02 20:00N 54°43' E 010°47'4 7.8
2017-Dec-02 19:30N 54°40' E 010°50'4 8.6
2017-Dec-02 19:00N 54°37' E 010°56'4 8.0
2017-Dec-02 18:30N 54°36' E 011°03'4 8.8
2017-Dec-02 18:01N 54°36' E 011°10'5 9.6
2017-Dec-02 17:30N 54°34' E 011°18'5 9.5
2017-Dec-02 17:00N 54°32' E 011°25'5 9.4
2017-Dec-02 16:30N 54°30' E 011°33'5 9.3
2017-Dec-02 16:00N 54°28' E 011°40'5 9.0
2017-Dec-02 15:30N 54°26' E 011°47'4 8.9
2017-Dec-02 15:00N 54°26' E 011°55'4 8.7
2017-Dec-02 14:30N 54°26' E 012°02'4 8.4
2017-Dec-02 14:00N 54°26' E 012°09'4 8.8
2017-Dec-02 13:30N 54°30' E 012°13'70 8.7
2017-Dec-02 05:29N 55°03' E 013°60'6 8.9
2017-Dec-02 04:49N 55°07' E 014°08'3 9.4
2017-Dec-02 04:27N 55°09' E 014°12'5 9.4
2017-Dec-02 03:57N 55°13' E 014°17'5 9.6
2017-Dec-02 03:28N 55°17' E 014°22'4 9.7
2017-Dec-02 03:00N 55°20' E 014°27'5 9.5
2017-Dec-02 02:30N 55°24' E 014°32'6 9.1
2017-Dec-02 01:52N 55°28' E 014°40'3 9.3
2017-Dec-02 01:30N 55°29' E 014°45'6 9.3
2017-Dec-02 00:54N 55°32' E 014°53'4 9.3
2017-Dec-02 00:28N 55°34' E 014°60'4 9.2
2017-Dec-01 23:59N 55°36' E 015°06'5 9.1
2017-Dec-01 23:30N 55°38' E 015°14'5 9.3
2017-Dec-01 23:00N 55°39' E 015°21'5 9.3
2017-Dec-01 22:30N 55°40' E 015°29'5 9.3
2017-Dec-01 22:00N 55°41' E 015°37'5 9.4
2017-Dec-01 21:30N 55°43' E 015°46'5 9.2
2017-Dec-01 21:00N 55°44' E 015°53'5 9.0
2017-Dec-01 20:30N 55°45' E 016°01'4 8.9
2017-Dec-01 20:00N 55°46' E 016°09'4 8.8
2017-Dec-01 19:30N 55°47' E 016°17'4 8.7
2017-Dec-01 19:00N 55°47' E 016°24'9 8.7
2017-Dec-01 17:56N 55°50' E 016°40'4 8.5
2017-Dec-01 17:29N 55°51' E 016°47'  

Dump ship's entire track history